sensor_id;sensor_type;location;lat;lon;timestamp;pressure;altitude;pressure_sealevel;temperature;humidity
70971;BME280;58632;51.718;19.446;2022-09-01T00:00:17;100082.12;;;16.52;59.61
70971;BME280;58632;51.718;19.446;2022-09-01T00:03:00;100078.94;;;16.48;59.73
70971;BME280;58632;51.718;19.446;2022-09-01T00:05:26;100078.70;;;16.45;59.73
70971;BME280;58632;51.718;19.446;2022-09-01T00:07:52;100081.53;;;16.42;59.68
70971;BME280;58632;51.718;19.446;2022-09-01T00:10:18;100079.67;;;16.37;59.78
70971;BME280;58632;51.718;19.446;2022-09-01T00:12:44;100081.48;;;16.34;59.72
70971;BME280;58632;51.718;19.446;2022-09-01T00:15:11;100083.11;;;16.27;59.77
70971;BME280;58632;51.718;19.446;2022-09-01T00:17:37;100081.39;;;16.19;60.02
70971;BME280;58632;51.718;19.446;2022-09-01T00:20:03;100084.23;;;16.13;60.06
70971;BME280;58632;51.718;19.446;2022-09-01T00:22:29;100087.00;;;16.08;59.97
70971;BME280;58632;51.718;19.446;2022-09-01T00:24:55;100087.98;;;16.03;60.01
70971;BME280;58632;51.718;19.446;2022-09-01T00:27:21;100085.70;;;16.01;60.11
70971;BME280;58632;51.718;19.446;2022-09-01T00:29:47;100090.34;;;16.00;60.24
70971;BME280;58632;51.718;19.446;2022-09-01T00:32:13;100091.33;;;15.99;60.22
70971;BME280;58632;51.718;19.446;2022-09-01T00:34:39;100093.92;;;15.96;60.31
70971;BME280;58632;51.718;19.446;2022-09-01T00:37:05;100092.14;;;15.91;60.39
70971;BME280;58632;51.718;19.446;2022-09-01T00:39:31;100090.11;;;15.90;60.63
70971;BME280;58632;51.718;19.446;2022-09-01T00:41:57;100088.39;;;15.87;60.70
70971;BME280;58632;51.718;19.446;2022-09-01T00:44:23;100093.01;;;15.88;60.96
70971;BME280;58632;51.718;19.446;2022-09-01T00:46:53;100096.04;;;15.87;60.94
70971;BME280;58632;51.718;19.446;2022-09-01T00:49:27;100089.23;;;15.86;61.09
70971;BME280;58632;51.718;19.446;2022-09-01T00:51:57;100088.10;;;15.85;61.01
70971;BME280;58632;51.718;19.446;2022-09-01T00:54:28;100085.77;;;15.84;60.89
70971;BME280;58632;51.718;19.446;2022-09-01T00:56:55;100088.44;;;15.83;60.89
70971;BME280;58632;51.718;19.446;2022-09-01T00:59:22;100088.98;;;15.81;61.03
70971;BME280;58632;51.718;19.446;2022-09-01T01:01:48;100088.21;;;15.79;60.99
70971;BME280;58632;51.718;19.446;2022-09-01T01:07:28;100087.56;;;15.70;61.06
70971;BME280;58632;51.718;19.446;2022-09-01T01:12:45;100079.79;;;15.69;60.74
70971;BME280;58632;51.718;19.446;2022-09-01T01:15:14;100080.30;;;15.62;60.69
70971;BME280;58632;51.718;19.446;2022-09-01T01:17:41;100082.84;;;15.60;60.72
70971;BME280;58632;51.718;19.446;2022-09-01T01:20:08;100086.55;;;15.61;60.73
70971;BME280;58632;51.718;19.446;2022-09-01T01:25:42;100088.76;;;15.55;60.74
70971;BME280;58632;51.718;19.446;2022-09-01T01:28:23;100091.02;;;15.55;60.80
70971;BME280;58632;51.718;19.446;2022-09-01T01:31:05;100094.19;;;15.55;60.69
70971;BME280;58632;51.718;19.446;2022-09-01T01:33:43;100092.89;;;15.54;60.77
70971;BME280;58632;51.718;19.446;2022-09-01T01:38:43;100091.68;;;15.50;60.78
70971;BME280;58632;51.718;19.446;2022-09-01T01:41:13;100089.08;;;15.48;60.76
70971;BME280;58632;51.718;19.446;2022-09-01T01:43:40;100085.50;;;15.44;60.83
70971;BME280;58632;51.718;19.446;2022-09-01T01:46:07;100083.83;;;15.41;60.89
70971;BME280;58632;51.718;19.446;2022-09-01T01:48:37;100085.57;;;15.41;61.09
70971;BME280;58632;51.718;19.446;2022-09-01T01:51:04;100083.36;;;15.46;61.00
70971;BME280;58632;51.718;19.446;2022-09-01T01:53:31;100079.83;;;15.50;61.14
70971;BME280;58632;51.718;19.446;2022-09-01T01:55:57;100074.48;;;15.50;61.01
70971;BME280;58632;51.718;19.446;2022-09-01T01:58:24;100075.91;;;15.48;61.09
70971;BME280;58632;51.718;19.446;2022-09-01T02:00:52;100073.80;;;15.48;61.11
70971;BME280;58632;51.718;19.446;2022-09-01T02:03:19;100076.06;;;15.53;61.26
70971;BME280;58632;51.718;19.446;2022-09-01T02:05:48;100072.34;;;15.58;61.11
70971;BME280;58632;51.718;19.446;2022-09-01T02:08:15;100073.05;;;15.58;61.07
70971;BME280;58632;51.718;19.446;2022-09-01T02:10:45;100072.20;;;15.53;60.92
70971;BME280;58632;51.718;19.446;2022-09-01T02:13:13;100068.45;;;15.46;60.96
70971;BME280;58632;51.718;19.446;2022-09-01T02:15:45;100070.67;;;15.36;61.01
70971;BME280;58632;51.718;19.446;2022-09-01T02:18:23;100070.19;;;15.26;61.16
70971;BME280;58632;51.718;19.446;2022-09-01T02:20:52;100069.83;;;15.19;61.44
70971;BME280;58632;51.718;19.446;2022-09-01T02:23:20;100070.17;;;15.20;61.37
70971;BME280;58632;51.718;19.446;2022-09-01T02:25:51;100066.67;;;15.24;61.37
70971;BME280;58632;51.718;19.446;2022-09-01T02:28:18;100063.19;;;15.21;61.27
70971;BME280;58632;51.718;19.446;2022-09-01T02:30:49;100063.95;;;15.20;61.39
70971;BME280;58632;51.718;19.446;2022-09-01T02:33:26;100068.34;;;15.19;61.34
70971;BME280;58632;51.718;19.446;2022-09-01T02:35:55;100070.31;;;15.19;61.42
70971;BME280;58632;51.718;19.446;2022-09-01T02:38:22;100071.04;;;15.19;61.36
70971;BME280;58632;51.718;19.446;2022-09-01T02:40:54;100070.84;;;15.16;61.40
70971;BME280;58632;51.718;19.446;2022-09-01T02:43:20;100072.87;;;15.13;61.35
70971;BME280;58632;51.718;19.446;2022-09-01T02:45:47;100073.61;;;15.09;61.42
70971;BME280;58632;51.718;19.446;2022-09-01T02:48:19;100077.08;;;15.07;61.80
70971;BME280;58632;51.718;19.446;2022-09-01T02:50:48;100077.01;;;15.07;61.83
70971;BME280;58632;51.718;19.446;2022-09-01T02:53:14;100082.98;;;15.09;61.95
70971;BME280;58632;51.718;19.446;2022-09-01T02:55:43;100079.90;;;15.11;61.87
70971;BME280;58632;51.718;19.446;2022-09-01T02:58:09;100079.58;;;15.16;61.80
70971;BME280;58632;51.718;19.446;2022-09-01T03:00:37;100073.86;;;15.19;61.81
70971;BME280;58632;51.718;19.446;2022-09-01T03:03:05;100079.20;;;15.24;61.78
70971;BME280;58632;51.718;19.446;2022-09-01T03:05:32;100072.92;;;15.20;61.62
70971;BME280;58632;51.718;19.446;2022-09-01T03:08:08;100075.70;;;15.13;61.80
70971;BME280;58632;51.718;19.446;2022-09-01T03:10:41;100073.79;;;15.05;62.04
70971;BME280;58632;51.718;19.446;2022-09-01T03:13:14;100078.25;;;14.99;62.08
70971;BME280;58632;51.718;19.446;2022-09-01T03:15:40;100072.83;;;14.92;62.28
70971;BME280;58632;51.718;19.446;2022-09-01T03:18:07;100071.32;;;14.87;62.35
70971;BME280;58632;51.718;19.446;2022-09-01T03:20:36;100071.85;;;14.84;62.56
70971;BME280;58632;51.718;19.446;2022-09-01T03:23:06;100073.90;;;14.79;62.59
70971;BME280;58632;51.718;19.446;2022-09-01T03:25:34;100077.69;;;14.76;62.70
70971;BME280;58632;51.718;19.446;2022-09-01T03:28:02;100080.27;;;14.67;62.98
70971;BME280;58632;51.718;19.446;2022-09-01T03:30:29;100083.29;;;14.63;62.87
70971;BME280;58632;51.718;19.446;2022-09-01T03:32:56;100080.68;;;14.58;63.11
70971;BME280;58632;51.718;19.446;2022-09-01T03:35:23;100075.85;;;14.55;63.27
70971;BME280;58632;51.718;19.446;2022-09-01T03:37:49;100076.80;;;14.53;63.36
70971;BME280;58632;51.718;19.446;2022-09-01T03:40:15;100076.66;;;14.50;63.53
70971;BME280;58632;51.718;19.446;2022-09-01T03:42:43;100075.20;;;14.44;63.78
70971;BME280;58632;51.718;19.446;2022-09-01T03:45:10;100075.77;;;14.40;63.55
70971;BME280;58632;51.718;19.446;2022-09-01T03:47:41;100084.88;;;14.34;63.84
70971;BME280;58632;51.718;19.446;2022-09-01T03:50:14;100083.96;;;14.31;63.73
70971;BME280;58632;51.718;19.446;2022-09-01T03:55:20;100083.61;;;14.12;64.10
70971;BME280;58632;51.718;19.446;2022-09-01T03:57:56;100081.73;;;14.06;64.04
70971;BME280;58632;51.718;19.446;2022-09-01T04:00:25;100080.48;;;13.97;64.29
70971;BME280;58632;51.718;19.446;2022-09-01T04:02:57;100084.65;;;13.95;64.66
70971;BME280;58632;51.718;19.446;2022-09-01T04:05:24;100085.70;;;13.98;64.68
70971;BME280;58632;51.718;19.446;2022-09-01T04:07:57;100085.58;;;14.04;64.62
70971;BME280;58632;51.718;19.446;2022-09-01T04:10:25;100084.41;;;14.08;64.75
70971;BME280;58632;51.718;19.446;2022-09-01T04:12:51;100083.05;;;14.08;64.73
70971;BME280;58632;51.718;19.446;2022-09-01T04:15:17;100081.88;;;13.99;64.72
70971;BME280;58632;51.718;19.446;2022-09-01T04:17:44;100085.21;;;13.93;65.24
70971;BME280;58632;51.718;19.446;2022-09-01T04:20:29;100086.96;;;13.98;65.30
70971;BME280;58632;51.718;19.446;2022-09-01T04:23:07;100088.84;;;14.02;65.13
70971;BME280;58632;51.718;19.446;2022-09-01T04:25:38;100088.86;;;14.03;64.94
70971;BME280;58632;51.718;19.446;2022-09-01T04:28:06;100089.50;;;14.08;65.01
70971;BME280;58632;51.718;19.446;2022-09-01T04:30:38;100091.20;;;14.15;65.05
70971;BME280;58632;51.718;19.446;2022-09-01T04:33:06;100092.85;;;14.20;64.90
70971;BME280;58632;51.718;19.446;2022-09-01T04:35:37;100093.27;;;14.23;64.94
70971;BME280;58632;51.718;19.446;2022-09-01T04:38:02;100093.61;;;14.32;64.89
70971;BME280;58632;51.718;19.446;2022-09-01T04:40:28;100088.30;;;14.42;64.69
70971;BME280;58632;51.718;19.446;2022-09-01T04:42:54;100090.44;;;14.56;64.28
70971;BME280;58632;51.718;19.446;2022-09-01T04:45:20;100090.25;;;14.73;64.12
70971;BME280;58632;51.718;19.446;2022-09-01T04:47:51;100089.70;;;14.88;63.82
70971;BME280;58632;51.718;19.446;2022-09-01T04:50:17;100091.38;;;15.03;63.54
70971;BME280;58632;51.718;19.446;2022-09-01T04:52:44;100092.33;;;15.28;63.42
70971;BME280;58632;51.718;19.446;2022-09-01T04:55:11;100091.13;;;15.53;63.09
70971;BME280;58632;51.718;19.446;2022-09-01T04:57:47;100095.43;;;15.86;62.31
70971;BME280;58632;51.718;19.446;2022-09-01T05:00:15;100096.30;;;16.47;60.78
70971;BME280;58632;51.718;19.446;2022-09-01T05:02:54;100094.08;;;16.89;59.36
70971;BME280;58632;51.718;19.446;2022-09-01T05:05:21;100091.56;;;16.93;59.34
70971;BME280;58632;51.718;19.446;2022-09-01T05:07:47;100089.14;;;16.81;59.31
70971;BME280;58632;51.718;19.446;2022-09-01T05:10:18;100091.84;;;16.89;59.31
70971;BME280;58632;51.718;19.446;2022-09-01T05:12:44;100095.97;;;16.99;59.09
70971;BME280;58632;51.718;19.446;2022-09-01T05:15:12;100095.67;;;16.96;58.67
70971;BME280;58632;51.718;19.446;2022-09-01T05:17:38;100093.73;;;16.94;58.53
70971;BME280;58632;51.718;19.446;2022-09-01T05:20:05;100091.52;;;16.91;58.28
70971;BME280;58632;51.718;19.446;2022-09-01T05:22:31;100097.14;;;17.38;57.49
70971;BME280;58632;51.718;19.446;2022-09-01T05:24:59;100100.20;;;17.34;56.96
70971;BME280;58632;51.718;19.446;2022-09-01T05:27:37;100097.94;;;17.15;57.44
70971;BME280;58632;51.718;19.446;2022-09-01T05:30:05;100101.55;;;17.13;57.85
70971;BME280;58632;51.718;19.446;2022-09-01T05:32:36;100104.58;;;17.11;57.49
70971;BME280;58632;51.718;19.446;2022-09-01T05:35:04;100100.42;;;17.06;57.01
70971;BME280;58632;51.718;19.446;2022-09-01T05:37:36;100099.52;;;17.02;57.01
70971;BME280;58632;51.718;19.446;2022-09-01T05:40:06;100097.34;;;17.23;56.87
70971;BME280;58632;51.718;19.446;2022-09-01T05:42:34;100095.01;;;18.03;55.00
70971;BME280;58632;51.718;19.446;2022-09-01T05:45:01;100091.46;;;18.85;54.22
70971;BME280;58632;51.718;19.446;2022-09-01T05:47:28;100091.65;;;19.57;52.60
70971;BME280;58632;51.718;19.446;2022-09-01T05:49:54;100085.98;;;20.09;51.93
70971;BME280;58632;51.718;19.446;2022-09-01T05:52:22;100087.06;;;20.64;50.32
70971;BME280;58632;51.718;19.446;2022-09-01T05:54:51;100091.98;;;21.18;49.28
70971;BME280;58632;51.718;19.446;2022-09-01T05:57:17;100087.58;;;21.72;48.78
70971;BME280;58632;51.718;19.446;2022-09-01T05:59:44;100091.58;;;22.29;46.86
70971;BME280;58632;51.718;19.446;2022-09-01T06:02:13;100088.87;;;22.74;46.14
70971;BME280;58632;51.718;19.446;2022-09-01T06:04:39;100091.20;;;23.22;44.98
70971;BME280;58632;51.718;19.446;2022-09-01T06:07:05;100084.71;;;23.78;44.48
70971;BME280;58632;51.718;19.446;2022-09-01T06:09:38;100084.80;;;24.31;41.69
70971;BME280;58632;51.718;19.446;2022-09-01T06:12:05;100088.09;;;24.70;41.25
70971;BME280;58632;51.718;19.446;2022-09-01T06:14:31;100088.23;;;25.04;40.45
70971;BME280;58632;51.718;19.446;2022-09-01T06:16:57;100091.57;;;25.27;39.08
70971;BME280;58632;51.718;19.446;2022-09-01T06:19:23;100091.65;;;25.36;39.26
70971;BME280;58632;51.718;19.446;2022-09-01T06:21:49;100091.16;;;25.29;38.08
70971;BME280;58632;51.718;19.446;2022-09-01T06:24:15;100095.08;;;25.09;38.63
70971;BME280;58632;51.718;19.446;2022-09-01T06:26:42;100096.02;;;24.90;38.51
70971;BME280;58632;51.718;19.446;2022-09-01T06:29:10;100093.45;;;24.60;38.41
70971;BME280;58632;51.718;19.446;2022-09-01T06:31:40;100093.61;;;24.43;38.98
70971;BME280;58632;51.718;19.446;2022-09-01T06:34:09;100093.36;;;24.47;38.97
70971;BME280;58632;51.718;19.446;2022-09-01T06:36:38;100100.46;;;24.35;38.67
70971;BME280;58632;51.718;19.446;2022-09-01T06:39:07;100100.84;;;24.22;39.07
70971;BME280;58632;51.718;19.446;2022-09-01T06:41:34;100102.08;;;24.31;38.89
70971;BME280;58632;51.718;19.446;2022-09-01T06:44:02;100107.16;;;24.38;39.32
70971;BME280;58632;51.718;19.446;2022-09-01T06:46:28;100107.13;;;24.29;38.38
70971;BME280;58632;51.718;19.446;2022-09-01T06:48:54;100115.58;;;24.16;38.43
70971;BME280;58632;51.718;19.446;2022-09-01T06:51:24;100111.38;;;23.83;38.15
70971;BME280;58632;51.718;19.446;2022-09-01T06:53:53;100113.52;;;23.50;37.94
70971;BME280;58632;51.718;19.446;2022-09-01T06:56:26;100114.04;;;23.19;38.26
70971;BME280;58632;51.718;19.446;2022-09-01T06:58:56;100117.70;;;23.05;38.96
70971;BME280;58632;51.718;19.446;2022-09-01T07:01:23;100120.75;;;23.06;38.88
70971;BME280;58632;51.718;19.446;2022-09-01T07:03:51;100122.00;;;22.95;39.11
70971;BME280;58632;51.718;19.446;2022-09-01T07:06:19;100120.17;;;22.97;39.21
70971;BME280;58632;51.718;19.446;2022-09-01T07:08:49;100120.10;;;23.01;39.21
70971;BME280;58632;51.718;19.446;2022-09-01T07:11:18;100119.63;;;23.04;39.42
70971;BME280;58632;51.718;19.446;2022-09-01T07:13:48;100124.58;;;23.06;39.03
70971;BME280;58632;51.718;19.446;2022-09-01T07:16:19;100127.36;;;23.03;38.89
70971;BME280;58632;51.718;19.446;2022-09-01T07:18:48;100130.95;;;23.01;39.04
70971;BME280;58632;51.718;19.446;2022-09-01T07:21:16;100131.98;;;23.01;39.11
70971;BME280;58632;51.718;19.446;2022-09-01T07:23:42;100137.66;;;23.04;39.17
70971;BME280;58632;51.718;19.446;2022-09-01T07:26:09;100136.23;;;23.08;38.84
70971;BME280;58632;51.718;19.446;2022-09-01T07:28:36;100133.35;;;23.13;38.90
70971;BME280;58632;51.718;19.446;2022-09-01T07:31:02;100134.23;;;23.20;38.63
70971;BME280;58632;51.718;19.446;2022-09-01T07:33:30;100129.05;;;23.08;39.09
70971;BME280;58632;51.718;19.446;2022-09-01T07:35:56;100129.20;;;23.18;38.83
70971;BME280;58632;51.718;19.446;2022-09-01T07:38:23;100128.80;;;23.23;38.83
70971;BME280;58632;51.718;19.446;2022-09-01T07:40:50;100126.96;;;23.31;39.34
70971;BME280;58632;51.718;19.446;2022-09-01T07:43:21;100128.92;;;23.57;38.79
70971;BME280;58632;51.718;19.446;2022-09-01T07:45:52;100128.67;;;23.60;38.47
70971;BME280;58632;51.718;19.446;2022-09-01T07:48:22;100131.84;;;23.71;38.28
70971;BME280;58632;51.718;19.446;2022-09-01T07:50:51;100128.82;;;23.65;38.29
70971;BME280;58632;51.718;19.446;2022-09-01T07:53:23;100133.39;;;23.59;38.33
70971;BME280;58632;51.718;19.446;2022-09-01T07:55:51;100132.73;;;23.64;39.05
70971;BME280;58632;51.718;19.446;2022-09-01T07:58:19;100130.45;;;23.50;39.61
70971;BME280;58632;51.718;19.446;2022-09-01T08:00:47;100134.18;;;23.59;39.01
70971;BME280;58632;51.718;19.446;2022-09-01T08:03:16;100137.70;;;23.59;38.20
70971;BME280;58632;51.718;19.446;2022-09-01T08:05:43;100134.60;;;23.39;38.40
70971;BME280;58632;51.718;19.446;2022-09-01T08:08:09;100131.33;;;22.90;38.85
70971;BME280;58632;51.718;19.446;2022-09-01T08:10:42;100128.59;;;22.77;39.13
70971;BME280;58632;51.718;19.446;2022-09-01T08:13:10;100126.11;;;22.82;39.45
70971;BME280;58632;51.718;19.446;2022-09-01T08:15:37;100136.21;;;23.04;39.40
70971;BME280;58632;51.718;19.446;2022-09-01T08:18:03;100135.19;;;23.29;39.61
70971;BME280;58632;51.718;19.446;2022-09-01T08:20:29;100134.74;;;23.58;39.45
70971;BME280;58632;51.718;19.446;2022-09-01T08:22:55;100131.21;;;23.83;38.54
70971;BME280;58632;51.718;19.446;2022-09-01T08:25:21;100133.95;;;23.99;37.99
70971;BME280;58632;51.718;19.446;2022-09-01T08:27:47;100132.97;;;24.04;37.71
70971;BME280;58632;51.718;19.446;2022-09-01T08:30:13;100137.53;;;23.75;38.03
70971;BME280;58632;51.718;19.446;2022-09-01T08:32:39;100138.60;;;23.41;38.65
70971;BME280;58632;51.718;19.446;2022-09-01T08:35:10;100142.50;;;23.59;38.50
70971;BME280;58632;51.718;19.446;2022-09-01T08:37:38;100141.70;;;23.51;38.55
70971;BME280;58632;51.718;19.446;2022-09-01T08:40:09;100138.84;;;23.44;38.81
70971;BME280;58632;51.718;19.446;2022-09-01T08:45:26;100133.23;;;22.86;39.37
70971;BME280;58632;51.718;19.446;2022-09-01T08:47:57;100133.03;;;23.09;39.16
70971;BME280;58632;51.718;19.446;2022-09-01T08:50:24;100132.55;;;23.30;39.40
70971;BME280;58632;51.718;19.446;2022-09-01T08:53:08;100132.36;;;23.56;39.28
70971;BME280;58632;51.718;19.446;2022-09-01T08:55:43;100132.46;;;23.89;38.42
70971;BME280;58632;51.718;19.446;2022-09-01T08:58:11;100129.03;;;24.10;38.29
70971;BME280;58632;51.718;19.446;2022-09-01T09:00:41;100126.70;;;24.32;37.67
70971;BME280;58632;51.718;19.446;2022-09-01T09:03:20;100122.39;;;24.45;36.57
70971;BME280;58632;51.718;19.446;2022-09-01T09:16:52;100123.58;;;23.51;35.26
70971;BME280;58632;51.718;19.446;2022-09-01T09:19:20;100123.70;;;23.25;35.65
70971;BME280;58632;51.718;19.446;2022-09-01T09:21:49;100124.88;;;22.94;34.78
70971;BME280;58632;51.718;19.446;2022-09-01T09:27:43;100121.39;;;23.07;34.85
70971;BME280;58632;51.718;19.446;2022-09-01T09:30:13;100113.87;;;23.30;35.26
70971;BME280;58632;51.718;19.446;2022-09-01T09:43:23;100106.02;;;24.07;34.36
70971;BME280;58632;51.718;19.446;2022-09-01T09:46:18;100106.02;;;24.11;35.03
70971;BME280;58632;51.718;19.446;2022-09-01T09:48:38;100106.11;;;24.05;34.62
70971;BME280;58632;51.718;19.446;2022-09-01T09:51:19;100114.18;;;24.05;34.84
70971;BME280;58632;51.718;19.446;2022-09-01T09:53:48;100117.45;;;23.83;34.86
70971;BME280;58632;51.718;19.446;2022-09-01T09:56:21;100121.35;;;23.51;35.16
70971;BME280;58632;51.718;19.446;2022-09-01T09:58:49;100120.74;;;23.19;35.49
70971;BME280;58632;51.718;19.446;2022-09-01T10:03:53;100112.63;;;22.72;36.63
70971;BME280;58632;51.718;19.446;2022-09-01T10:06:38;100111.23;;;22.93;36.61
70971;BME280;58632;51.718;19.446;2022-09-01T10:09:15;100108.20;;;23.36;36.18
70971;BME280;58632;51.718;19.446;2022-09-01T10:11:58;100100.45;;;23.75;36.23
70971;BME280;58632;51.718;19.446;2022-09-01T10:14:34;100098.18;;;24.09;36.12
70971;BME280;58632;51.718;19.446;2022-09-01T10:17:10;100095.66;;;24.18;34.75
70971;BME280;58632;51.718;19.446;2022-09-01T10:20:08;100101.86;;;23.90;35.12
70971;BME280;58632;51.718;19.446;2022-09-01T10:22:35;100108.27;;;23.41;35.87
70971;BME280;58632;51.718;19.446;2022-09-01T10:25:03;100110.44;;;23.10;36.48
70971;BME280;58632;51.718;19.446;2022-09-01T10:27:34;100113.59;;;22.78;36.84
70971;BME280;58632;51.718;19.446;2022-09-01T10:30:09;100114.66;;;22.45;37.21
70971;BME280;58632;51.718;19.446;2022-09-01T10:32:48;100112.73;;;22.05;37.93
70971;BME280;58632;51.718;19.446;2022-09-01T10:35:25;100118.23;;;21.73;38.21
70971;BME280;58632;51.718;19.446;2022-09-01T10:37:52;100118.03;;;21.51;38.27
70971;BME280;58632;51.718;19.446;2022-09-01T10:42:49;100113.63;;;21.28;39.01
70971;BME280;58632;51.718;19.446;2022-09-01T10:45:37;100110.09;;;21.55;38.81
70971;BME280;58632;51.718;19.446;2022-09-01T10:50:49;100109.91;;;22.67;36.09
70971;BME280;58632;51.718;19.446;2022-09-01T11:04:21;100089.98;;;23.80;34.61
70971;BME280;58632;51.718;19.446;2022-09-01T11:11:48;100103.04;;;23.60;34.64
70971;BME280;58632;51.718;19.446;2022-09-01T11:14:18;100106.44;;;23.41;34.64
70971;BME280;58632;51.718;19.446;2022-09-01T11:18:07;100105.73;;;23.26;34.85
70971;BME280;58632;51.718;19.446;2022-09-01T11:20:28;100104.54;;;23.15;35.48
70971;BME280;58632;51.718;19.446;2022-09-01T11:28:08;100106.84;;;23.35;35.37
70971;BME280;58632;51.718;19.446;2022-09-01T11:35:42;100105.93;;;23.55;35.16
70971;BME280;58632;51.718;19.446;2022-09-01T11:38:13;100100.84;;;23.82;34.98
70971;BME280;58632;51.718;19.446;2022-09-01T11:40:39;100095.79;;;24.09;34.85
70971;BME280;58632;51.718;19.446;2022-09-01T11:43:08;100095.17;;;24.20;34.14
70971;BME280;58632;51.718;19.446;2022-09-01T11:45:43;100091.63;;;24.25;34.32
70971;BME280;58632;51.718;19.446;2022-09-01T11:48:15;100095.16;;;24.22;34.46
70971;BME280;58632;51.718;19.446;2022-09-01T11:50:42;100098.91;;;24.08;34.22
70971;BME280;58632;51.718;19.446;2022-09-01T11:55:39;100099.59;;;23.98;35.41
70971;BME280;58632;51.718;19.446;2022-09-01T11:58:09;100102.84;;;24.05;35.08
70971;BME280;58632;51.718;19.446;2022-09-01T12:00:39;100104.98;;;23.93;34.52
70971;BME280;58632;51.718;19.446;2022-09-01T12:03:24;100102.27;;;23.86;34.49
70971;BME280;58632;51.718;19.446;2022-09-01T12:06:10;100102.02;;;23.90;34.22
70971;BME280;58632;51.718;19.446;2022-09-01T12:08:40;100097.64;;;23.86;34.43
70971;BME280;58632;51.718;19.446;2022-09-01T12:11:19;100097.31;;;23.89;34.75
70971;BME280;58632;51.718;19.446;2022-09-01T12:14:07;100088.95;;;24.01;34.53
70971;BME280;58632;51.718;19.446;2022-09-01T12:16:35;100088.25;;;24.15;33.45
70971;BME280;58632;51.718;19.446;2022-09-01T12:19:04;100079.66;;;24.21;33.67
70971;BME280;58632;51.718;19.446;2022-09-01T12:21:41;100074.63;;;24.37;33.93
70971;BME280;58632;51.718;19.446;2022-09-01T12:24:19;100075.65;;;24.55;34.26
70971;BME280;58632;51.718;19.446;2022-09-01T12:26:47;100072.98;;;24.47;33.34
70971;BME280;58632;51.718;19.446;2022-09-01T12:29:15;100071.02;;;24.21;33.38
70971;BME280;58632;51.718;19.446;2022-09-01T12:31:43;100071.14;;;24.01;33.88
70971;BME280;58632;51.718;19.446;2022-09-01T12:34:41;100072.00;;;23.84;33.89
70971;BME280;58632;51.718;19.446;2022-09-01T12:37:24;100073.42;;;23.55;35.02
70971;BME280;58632;51.718;19.446;2022-09-01T12:39:53;100069.48;;;23.38;35.00
70971;BME280;58632;51.718;19.446;2022-09-01T12:42:30;100066.30;;;23.28;35.38
70971;BME280;58632;51.718;19.446;2022-09-01T12:45:01;100064.23;;;23.25;36.18
70971;BME280;58632;51.718;19.446;2022-09-01T12:52:48;100067.45;;;23.03;36.23
70971;BME280;58632;51.718;19.446;2022-09-01T12:55:24;100068.05;;;22.90;35.73
70971;BME280;58632;51.718;19.446;2022-09-01T12:58:08;100064.06;;;22.87;36.18
70971;BME280;58632;51.718;19.446;2022-09-01T13:00:36;100059.29;;;22.91;36.73
70971;BME280;58632;51.718;19.446;2022-09-01T13:03:18;100056.73;;;22.90;36.92
70971;BME280;58632;51.718;19.446;2022-09-01T13:05:52;100056.10;;;22.90;36.81
70971;BME280;58632;51.718;19.446;2022-09-01T13:08:25;100052.49;;;22.95;37.27
70971;BME280;58632;51.718;19.446;2022-09-01T13:11:04;100053.64;;;23.00;36.72
70971;BME280;58632;51.718;19.446;2022-09-01T13:13:30;100054.20;;;22.97;37.05
70971;BME280;58632;51.718;19.446;2022-09-01T13:15:58;100057.20;;;22.95;37.58
70971;BME280;58632;51.718;19.446;2022-09-01T13:18:31;100050.99;;;22.90;37.94
70971;BME280;58632;51.718;19.446;2022-09-01T13:20:57;100056.98;;;22.74;37.78
70971;BME280;58632;51.718;19.446;2022-09-01T13:23:24;100057.67;;;22.61;37.76
70971;BME280;58632;51.718;19.446;2022-09-01T13:25:49;100054.95;;;22.48;37.59
70971;BME280;58632;51.718;19.446;2022-09-01T13:28:16;100055.80;;;22.32;37.85
70971;BME280;58632;51.718;19.446;2022-09-01T13:30:44;100054.31;;;22.15;38.23
70971;BME280;58632;51.718;19.446;2022-09-01T13:33:11;100058.15;;;22.01;38.43
70971;BME280;58632;51.718;19.446;2022-09-01T13:35:37;100061.39;;;21.93;39.26
70971;BME280;58632;51.718;19.446;2022-09-01T13:38:03;100062.02;;;21.91;39.50
70971;BME280;58632;51.718;19.446;2022-09-01T13:40:29;100060.73;;;21.85;39.25
70971;BME280;58632;51.718;19.446;2022-09-01T13:42:55;100060.98;;;21.71;39.33
70971;BME280;58632;51.718;19.446;2022-09-01T13:45:22;100059.00;;;21.55;39.55
70971;BME280;58632;51.718;19.446;2022-09-01T13:47:49;100062.31;;;21.40;40.01
70971;BME280;58632;51.718;19.446;2022-09-01T13:50:18;100063.19;;;21.30;40.59
70971;BME280;58632;51.718;19.446;2022-09-01T13:52:50;100065.70;;;21.25;40.99
70971;BME280;58632;51.718;19.446;2022-09-01T13:55:22;100064.04;;;21.25;41.16
70971;BME280;58632;51.718;19.446;2022-09-01T13:57:48;100066.08;;;21.21;41.32
70971;BME280;58632;51.718;19.446;2022-09-01T14:00:17;100067.67;;;21.12;41.19
70971;BME280;58632;51.718;19.446;2022-09-01T14:02:46;100069.16;;;20.96;41.45
70971;BME280;58632;51.718;19.446;2022-09-01T14:05:24;100071.76;;;20.84;41.35
70971;BME280;58632;51.718;19.446;2022-09-01T14:07:50;100074.91;;;20.71;41.22
70971;BME280;58632;51.718;19.446;2022-09-01T14:10:18;100072.42;;;20.55;41.21
70971;BME280;58632;51.718;19.446;2022-09-01T14:12:45;100070.51;;;20.38;41.37
70971;BME280;58632;51.718;19.446;2022-09-01T14:15:11;100071.14;;;20.23;41.75
70971;BME280;58632;51.718;19.446;2022-09-01T14:17:37;100072.95;;;20.15;42.06